Time;durP1;ratioP1;P1;durP2;ratioP2;P2;SDS_P1;SDS_P2;PMS_P1;PMS_P2;Temp;Humidity;BMP_temperature;BMP_pressure;BME280_temperature;BME280_humidity;BME280_pressure;Samples;Min_cycle;Max_cycle;Signal;HPM_P1;HPM_P2
2023/07/05 00:01:56;;;;;;;6.45;4.25;;;;;;;26.16;46.02;98624.84;4935214;29;20368;-64
2023/07/05 00:04:22;;;;;;;7.35;5.13;;;;;;;26.12;46.29;98626.31;4935000;29;20031;-65
2023/07/05 00:06:51;;;;;;;11.77;8.00;;;;;;;26.06;45.96;98616.47;4935309;29;20122;-65
2023/07/05 00:09:17;;;;;;;9.20;5.90;;;;;;;26.06;46.48;98627.19;4935214;29;20047;-65
2023/07/05 00:11:42;;;;;;;11.82;8.20;;;;;;;26.04;46.22;98624.72;4935210;29;20023;-65
2023/07/05 00:14:07;;;;;;;13.07;10.23;;;;;;;26.02;46.22;98618.78;4934990;29;20048;-65
2023/07/05 00:16:33;;;;;;;10.43;7.20;;;;;;;25.99;45.92;98620.03;4917870;29;20044;-65
2023/07/05 00:18:58;;;;;;;10.63;6.18;;;;;;;25.98;45.83;98620.25;4934982;29;20044;-64
2023/07/05 00:21:25;;;;;;;9.25;6.70;;;;;;;25.93;46.14;98618.22;4935204;29;20083;-65
2023/07/05 00:23:51;;;;;;;8.05;6.28;;;;;;;25.95;46.21;98618.00;4934956;29;20031;-65
2023/07/05 00:26:16;;;;;;;8.55;6.10;;;;;;;25.97;45.78;98622.13;4935299;29;20114;-65
2023/07/05 00:28:42;;;;;;;17.10;10.95;;;;;;;25.96;45.86;98622.31;4934993;29;20038;-65
2023/07/05 00:31:07;;;;;;;7.90;5.57;;;;;;;25.91;46.12;98622.16;4902268;29;20047;-65
2023/07/05 00:33:33;;;;;;;9.43;6.72;;;;;;;25.86;45.85;98622.81;4934975;29;20039;-65
2023/07/05 00:35:58;;;;;;;10.75;7.82;;;;;;;25.77;45.86;98614.22;4917991;29;20043;-65
2023/07/05 00:38:24;;;;;;;8.07;5.68;;;;;;;25.79;45.25;98630.06;4934819;29;20112;-65
2023/07/05 00:40:50;;;;;;;8.00;5.25;;;;;;;25.74;45.34;98625.38;4934840;29;20060;-65
2023/07/05 00:43:16;;;;;;;8.60;5.38;;;;;;;25.69;45.19;98617.19;4934730;29;20055;-65
2023/07/05 00:45:48;;;;;;;7.78;5.65;;;;;;;25.70;45.92;98615.34;4917467;29;20090;-65
2023/07/05 00:48:14;;;;;;;7.50;5.28;;;;;;;25.71;45.11;98611.63;4934837;29;20444;-65
2023/07/05 00:50:41;;;;;;;7.22;5.40;;;;;;;25.72;45.57;98615.94;4917843;29;20074;-65
2023/07/05 00:53:07;;;;;;;8.07;5.65;;;;;;;25.73;45.34;98610.38;4902339;29;20452;-65
2023/07/05 00:55:32;;;;;;;8.07;6.13;;;;;;;25.74;45.69;98611.19;4934743;29;20043;-65
2023/07/05 00:57:58;;;;;;;7.72;5.07;;;;;;;25.72;45.23;98610.59;4918063;29;20035;-65
2023/07/05 01:00:23;;;;;;;7.20;4.70;;;;;;;25.69;45.43;98613.72;4902031;29;20046;-65
2023/07/05 01:02:50;;;;;;;5.47;4.15;;;;;;;25.63;45.58;98610.88;4901796;29;20059;-65
2023/07/05 01:05:16;;;;;;;7.03;4.63;;;;;;;25.63;45.88;98610.03;4901982;29;20070;-65
2023/07/05 01:07:42;;;;;;;8.52;4.47;;;;;;;25.61;45.79;98602.22;4901761;29;20067;-65
2023/07/05 01:10:15;;;;;;;6.47;4.30;;;;;;;25.58;45.83;98594.66;4917476;29;20531;-65
2023/07/05 01:13:02;;;;;;;8.05;4.35;;;;;;;25.64;45.81;98609.00;4918641;29;20042;-65
2023/07/05 01:15:51;;;;;;;6.18;4.28;;;;;;;25.66;46.13;98598.91;4903315;29;20431;-65
2023/07/05 01:18:28;;;;;;;11.18;4.82;;;;;;;25.67;46.12;98605.91;4934828;29;20573;-65
2023/07/05 01:21:21;;;;;;;7.28;3.95;;;;;;;25.66;45.93;98598.09;4934504;29;20043;-65
2023/07/05 01:23:50;;;;;;;7.43;4.47;;;;;;;25.68;46.27;98590.66;4917751;29;20035;-65
2023/07/05 01:26:46;;;;;;;7.45;4.68;;;;;;;25.69;45.92;98590.47;4934343;29;20035;-65
2023/07/05 01:29:50;;;;;;;6.13;4.30;;;;;;;25.68;46.34;98578.16;4917421;29;20062;-65
2023/07/05 01:32:25;;;;;;;5.82;4.25;;;;;;;25.65;45.82;98583.94;4917370;29;20418;-65
2023/07/05 01:34:57;;;;;;;5.43;4.13;;;;;;;25.53;46.05;98583.00;4934482;29;20038;-65
2023/07/05 01:37:42;;;;;;;8.93;4.65;;;;;;;25.49;46.40;98590.59;4918112;29;20163;-64
2023/07/05 01:40:25;;;;;;;7.18;4.63;;;;;;;25.44;46.98;98587.78;4920368;29;20732;-65
2023/07/05 01:42:55;;;;;;;9.38;4.07;;;;;;;25.37;46.96;98579.00;4937051;29;20074;-66
2023/07/05 01:45:37;;;;;;;9.27;4.88;;;;;;;25.34;46.49;98574.91;4921124;29;20408;-65
2023/07/05 01:48:29;;;;;;;9.40;4.20;;;;;;;25.31;46.82;98580.69;4936645;29;20487;-65
2023/07/05 01:51:08;;;;;;;6.65;4.15;;;;;;;25.32;46.67;98578.81;4923109;29;20138;-64
2023/07/05 01:53:51;;;;;;;6.05;4.15;;;;;;;25.26;46.87;98575.94;4936412;29;20034;-64
2023/07/05 01:56:22;;;;;;;6.75;4.35;;;;;;;25.31;47.21;98580.69;4921409;29;20032;-65
2023/07/05 01:58:49;;;;;;;9.95;4.07;;;;;;;25.27;46.96;98574.13;4937339;29;20447;-64
2023/07/05 02:01:16;;;;;;;7.45;4.57;;;;;;;25.19;46.66;98583.22;4935996;29;20028;-65
2023/07/05 02:03:41;;;;;;;5.88;4.40;;;;;;;25.18;47.61;98580.75;4920435;29;20415;-64
2023/07/05 02:06:08;;;;;;;7.10;4.40;;;;;;;25.18;47.08;98575.41;4920178;29;20035;-65
2023/07/05 02:08:38;;;;;;;6.32;4.20;;;;;;;25.18;47.17;98581.56;4937353;29;20023;-64
2023/07/05 02:11:04;;;;;;;8.98;4.68;;;;;;;25.16;47.25;98572.97;4920114;29;20051;-64
2023/07/05 02:13:29;;;;;;;10.73;4.72;;;;;;;25.12;47.30;98579.75;4904510;29;20023;-64
2023/07/05 02:15:55;;;;;;;6.03;4.53;;;;;;;25.14;47.64;98584.88;4920269;29;20043;-64
2023/07/05 02:18:20;;;;;;;9.48;3.95;;;;;;;25.08;47.93;98584.72;4920131;29;20032;-65
2023/07/05 02:20:46;;;;;;;6.35;4.20;;;;;;;25.00;47.54;98584.97;4937230;29;20031;-65
2023/07/05 02:23:11;;;;;;;6.35;4.50;;;;;;;24.96;47.67;98582.94;4937048;29;20028;-65
2023/07/05 02:25:37;;;;;;;8.55;4.50;;;;;;;24.97;47.54;98585.41;4936859;29;20449;-65
2023/07/05 02:28:08;;;;;;;5.68;4.13;;;;;;;24.94;47.92;98591.16;4936907;29;20031;-65
2023/07/05 02:30:37;;;;;;;6.82;4.60;;;;;;;24.93;47.92;98587.66;4935679;29;20055;-66
2023/07/05 02:33:03;;;;;;;6.78;4.90;;;;;;;24.92;48.12;98599.38;4919374;29;20126;-65
2023/07/05 02:35:28;;;;;;;6.35;4.57;;;;;;;24.89;47.98;98605.16;4936487;29;20058;-65
2023/07/05 02:37:55;;;;;;;7.45;4.70;;;;;;;24.85;47.61;98606.59;4919827;29;20070;-65
2023/07/05 02:40:22;;;;;;;8.60;4.30;;;;;;;24.85;47.70;98619.13;4936659;29;20451;-65
2023/07/05 02:42:47;;;;;;;7.03;4.70;;;;;;;24.87;47.76;98609.88;4919609;29;20435;-65
2023/07/05 02:45:13;;;;;;;5.85;4.53;;;;;;;24.85;47.69;98613.78;4936512;29;20052;-65
2023/07/05 02:47:38;;;;;;;5.22;4.20;;;;;;;24.88;47.88;98618.72;4919573;29;20163;-65
2023/07/05 02:50:04;;;;;;;7.53;4.72;;;;;;;24.93;48.10;98616.22;4936919;29;20118;-64
2023/07/05 02:52:30;;;;;;;8.50;4.80;;;;;;;24.96;47.80;98614.97;4936598;29;20103;-64
2023/07/05 02:54:55;;;;;;;8.02;4.53;;;;;;;24.91;48.03;98619.09;4936478;29;20035;-65
2023/07/05 02:57:21;;;;;;;6.38;4.20;;;;;;;24.90;48.18;98624.66;4936500;29;20568;-65
2023/07/05 02:59:46;;;;;;;9.20;4.50;;;;;;;24.90;48.27;98621.97;4936377;29;20032;-65
2023/07/05 03:02:12;;;;;;;5.93;4.65;;;;;;;25.02;48.17;98628.28;4936201;29;20047;-65
2023/07/05 03:04:37;;;;;;;9.38;4.65;;;;;;;25.07;47.66;98625.78;4936230;29;20043;-65
2023/07/05 03:07:03;;;;;;;6.10;4.30;;;;;;;25.24;47.72;98622.63;4936535;29;20027;-64
2023/07/05 03:09:28;;;;;;;8.75;4.88;;;;;;;25.40;47.28;98621.31;4936196;29;20410;-65
2023/07/05 03:11:54;;;;;;;6.55;4.57;;;;;;;25.64;46.49;98617.84;4936089;29;20058;-64
2023/07/05 03:14:19;;;;;;;6.80;4.40;;;;;;;25.91;46.47;98616.81;4936090;29;20042;-65
2023/07/05 03:16:45;;;;;;;10.88;4.38;;;;;;;26.16;45.94;98619.47;4936001;29;20059;-65
2023/07/05 03:19:10;;;;;;;8.98;4.68;;;;;;;26.49;44.67;98612.97;4936230;29;20408;-65
2023/07/05 03:21:36;;;;;;;7.10;4.30;;;;;;;26.66;44.25;98611.34;4935713;29;20032;-66
2023/07/05 03:24:01;;;;;;;8.68;5.20;;;;;;;26.92;43.76;98605.88;4936174;29;20047;-65
2023/07/05 03:26:27;;;;;;;13.63;5.25;;;;;;;27.28;43.22;98599.59;4935828;29;20496;-65
2023/07/05 03:28:52;;;;;;;9.30;4.85;;;;;;;27.60;42.91;98600.16;4935804;29;20122;-68
2023/07/05 03:31:18;;;;;;;6.30;4.80;;;;;;;27.90;42.05;98601.09;4935723;29;20028;-67
2023/07/05 03:33:44;;;;;;;14.77;4.53;;;;;;;28.22;41.57;98598.88;4918959;29;20401;-67
2023/07/05 03:36:18;;;;;;;8.77;4.65;;;;;;;28.68;41.03;98599.06;4934396;29;20043;-68
2023/07/05 03:38:43;;;;;;;12.50;4.82;;;;;;;29.01;40.09;98589.47;4919002;29;20052;-68
2023/07/05 03:41:11;;;;;;;10.80;4.43;;;;;;;29.23;39.24;98603.06;4918394;29;20086;-67
2023/07/05 03:43:37;;;;;;;9.23;4.32;;;;;;;29.51;39.09;98594.13;4903019;29;20415;-67
2023/07/05 03:46:04;;;;;;;18.45;4.68;;;;;;;29.88;38.38;98590.16;4935519;29;20051;-68
2023/07/05 03:48:30;;;;;;;13.93;5.03;;;;;;;30.42;37.51;98611.91;4918502;29;20036;-68
2023/07/05 03:50:57;;;;;;;12.32;4.88;;;;;;;30.90;37.00;98600.59;4918718;29;20038;-73
2023/07/05 03:53:22;;;;;;;6.60;4.47;;;;;;;31.31;36.46;98604.56;4918292;29;20035;-70
2023/07/05 03:55:48;;;;;;;13.65;4.80;;;;;;;31.61;35.80;98599.69;4887175;29;20051;-73
2023/07/05 03:58:13;;;;;;;25.55;4.82;;;;;;;32.41;34.80;98603.16;4918296;29;20444;-73
2023/07/05 04:00:39;;;;;;;16.15;4.38;;;;;;;32.97;34.02;98602.59;4938442;29;20075;-74
2023/07/05 04:03:04;;;;;;;14.90;4.60;;;;;;;33.35;33.66;98605.06;4936109;29;20062;-75
2023/07/05 04:05:30;;;;;;;17.15;4.47;;;;;;;33.86;32.68;98594.25;4886736;29;20040;-78
2023/07/05 04:07:55;;;;;;;18.33;4.10;;;;;;;34.30;32.14;98595.53;4902857;29;20143;-77
2023/07/05 04:10:21;;;;;;;9.05;4.13;;;;;;;34.67;31.11;98597.00;4918656;29;20506;-76
2023/07/05 04:12:46;;;;;;;19.23;5.00;;;;;;;35.09;30.92;98592.16;4902597;29;20040;-78
2023/07/05 04:15:12;;;;;;;17.10;4.57;;;;;;;35.48;29.91;98599.50;4886661;29;20488;-78
2023/07/05 04:17:37;;;;;;;20.70;4.88;;;;;;;35.83;29.54;98601.06;4917918;29;20439;-76
2023/07/05 04:20:03;;;;;;;13.23;4.45;;;;;;;36.17;28.93;98594.75;4901906;29;20044;-74
2023/07/05 04:22:34;;;;;;;8.90;4.05;;;;;;;36.53;28.09;98601.69;4934433;29;20020;-74
2023/07/05 04:25:00;;;;;;;11.02;4.20;;;;;;;36.87;27.34;98598.81;4900962;29;20044;-73
2023/07/05 04:27:25;;;;;;;10.75;4.05;;;;;;;37.20;26.88;98600.78;4884794;29;20032;-73
2023/07/05 04:29:51;;;;;;;9.57;3.58;;;;;;;37.53;26.42;98604.34;4901825;29;20059;-73
2023/07/05 04:32:16;;;;;;;12.30;3.72;;;;;;;37.83;25.95;98608.47;4901823;29;20035;-74
2023/07/05 04:34:41;;;;;;;11.73;3.92;;;;;;;38.15;25.59;98609.53;4918018;29;20472;-72
2023/07/05 04:37:07;;;;;;;9.40;3.92;;;;;;;38.51;25.15;98611.56;4917877;29;20035;-71
2023/07/05 04:39:32;;;;;;;8.52;4.10;;;;;;;38.81;24.86;98606.56;4917735;29;20507;-71
2023/07/05 04:41:58;;;;;;;8.18;3.97;;;;;;;39.14;24.55;98605.56;4901718;29;20044;-72
2023/07/05 04:44:24;;;;;;;8.23;3.45;;;;;;;39.42;24.20;98609.78;4918062;29;20479;-72
2023/07/05 04:46:49;;;;;;;11.23;3.40;;;;;;;39.68;23.92;98611.91;4934993;29;20191;-73
2023/07/05 04:49:14;;;;;;;6.18;3.60;;;;;;;39.90;23.61;98605.59;4886647;29;20063;-72
2023/07/05 04:51:40;;;;;;;10.65;3.88;;;;;;;40.22;23.52;98613.78;4934462;29;20431;-74
2023/07/05 04:54:05;;;;;;;8.73;3.40;;;;;;;40.51;23.19;98614.03;4917565;29;20095;-72
2023/07/05 04:56:31;;;;;;;11.43;3.67;;;;;;;40.79;23.15;98616.50;4934487;29;20047;-72
2023/07/05 04:58:56;;;;;;;9.43;3.35;;;;;;;41.10;22.78;98617.50;4917154;29;20055;-74
2023/07/05 05:01:22;;;;;;;7.32;3.30;;;;;;;41.44;22.38;98608.47;4886188;29;20403;-75
2023/07/05 05:03:47;;;;;;;5.70;2.90;;;;;;;41.75;22.19;98605.53;4934966;29;20063;-73
2023/07/05 05:06:13;;;;;;;4.47;2.70;;;;;;;42.05;21.70;98610.25;4901142;29;20463;-74
2023/07/05 05:08:38;;;;;;;8.17;2.90;;;;;;;42.30;21.79;98603.03;4901447;29;20032;-74
2023/07/05 05:11:06;;;;;;;5.17;2.90;;;;;;;42.64;21.41;98610.28;4917625;29;20157;-73
2023/07/05 05:13:32;;;;;;;8.32;2.92;;;;;;;42.94;21.11;98606.69;4917720;29;20111;-73
2023/07/05 05:15:58;;;;;;;9.55;2.70;;;;;;;43.19;20.74;98602.09;4905833;29;20038;-73
2023/07/05 05:18:26;;;;;;;13.30;7.07;;;;;;;43.48;20.56;98605.91;4938380;29;20036;-73
2023/07/05 05:20:51;;;;;;;9.20;4.15;;;;;;;43.78;20.26;98603.78;4921094;29;20075;-73
2023/07/05 05:23:17;;;;;;;14.37;5.50;;;;;;;44.04;20.15;98597.97;4921343;29;20042;-74
2023/07/05 05:25:43;;;;;;;7.90;5.63;;;;;;;44.32;19.92;98599.28;4921189;29;20118;-74
2023/07/05 05:28:09;;;;;;;13.53;5.17;;;;;;;44.52;19.46;98592.81;4889401;29;20414;-73
2023/07/05 05:30:35;;;;;;;7.10;4.23;;;;;;;44.76;18.97;98597.47;4905305;29;20039;-74
2023/07/05 05:33:01;;;;;;;8.25;4.32;;;;;;;45.01;18.76;98602.13;4905277;29;20047;-74
2023/07/05 05:35:27;;;;;;;6.35;3.47;;;;;;;45.10;18.62;98589.00;4905413;29;20111;-73
2023/07/05 05:37:53;;;;;;;8.43;3.40;;;;;;;45.24;18.25;98586.63;4905335;29;20036;-74
2023/07/05 05:40:18;;;;;;;6.27;2.70;;;;;;;45.26;18.51;98592.63;4938248;29;20070;-75
2023/07/05 05:42:44;;;;;;;7.73;3.13;;;;;;;45.38;18.58;98596.44;4937768;29;20054;-74
2023/07/05 05:45:10;;;;;;;4.85;3.28;;;;;;;45.48;18.06;98588.50;4905043;29;20047;-73
2023/07/05 05:47:36;;;;;;;7.63;3.13;;;;;;;45.57;18.03;98588.31;4905259;29;20028;-73
2023/07/05 05:50:01;;;;;;;8.90;3.10;;;;;;;45.69;17.97;98588.25;4905137;29;20454;-73
2023/07/05 05:52:27;;;;;;;6.53;3.27;;;;;;;45.79;17.65;98588.91;4905096;29;20032;-74
2023/07/05 05:54:52;;;;;;;6.73;3.03;;;;;;;45.85;17.94;98591.03;4905013;29;20039;-74
2023/07/05 05:57:18;;;;;;;6.37;3.70;;;;;;;45.91;17.88;98583.28;4905187;29;20282;-73
2023/07/05 05:59:43;;;;;;;6.93;3.30;;;;;;;46.00;18.13;98594.91;4904627;29;20514;-73
2023/07/05 06:02:09;;;;;;;5.30;2.60;;;;;;;46.01;17.95;98584.69;4920490;29;20023;-73
2023/07/05 06:04:35;;;;;;;6.07;3.00;;;;;;;46.07;17.91;98582.44;4920576;29;20090;-73
2023/07/05 06:07:00;;;;;;;7.00;3.20;;;;;;;46.14;17.74;98588.94;4904806;29;20042;-73
2023/07/05 06:09:25;;;;;;;24.43;3.00;;;;;;;46.18;17.47;98589.88;4920455;29;20028;-74
2023/07/05 06:11:51;;;;;;;10.73;2.60;;;;;;;46.17;17.68;98582.72;4904467;29;20035;-74
2023/07/05 06:14:17;;;;;;;5.50;2.53;;;;;;;46.21;17.83;98591.91;4920130;29;20603;-74
2023/07/05 06:16:42;;;;;;;7.30;2.30;;;;;;;46.18;17.72;98586.28;4904306;29;20039;-73
2023/07/05 06:19:07;;;;;;;8.23;2.40;;;;;;;46.20;18.00;98582.03;4920117;29;20153;-73
2023/07/05 06:21:33;;;;;;;6.77;2.80;;;;;;;46.22;17.81;98585.22;4920128;29;20138;-73
2023/07/05 06:23:59;;;;;;;6.33;2.50;;;;;;;46.14;18.03;98585.38;4919689;29;20043;-74
2023/07/05 06:26:24;;;;;;;10.33;2.70;;;;;;;46.13;18.20;98587.34;4919794;29;20492;-74
2023/07/05 06:28:50;;;;;;;8.83;3.10;;;;;;;46.11;17.95;98586.09;4904530;29;20044;-73
2023/07/05 06:31:16;;;;;;;7.40;2.47;;;;;;;46.13;17.78;98592.88;4920038;29;20078;-74
2023/07/05 06:33:41;;;;;;;5.55;2.60;;;;;;;46.10;17.81;98590.00;4920207;29;20047;-74
2023/07/05 06:36:07;;;;;;;5.70;2.57;;;;;;;46.06;18.05;98595.44;4904078;29;20066;-74
2023/07/05 06:38:33;;;;;;;5.37;2.53;;;;;;;45.98;17.96;98580.69;4888383;29;20043;-73
2023/07/05 06:40:58;;;;;;;5.97;2.30;;;;;;;45.93;17.84;98580.16;4904291;29;20044;-75
2023/07/05 06:43:24;;;;;;;4.13;2.30;;;;;;;45.85;18.11;98593.78;4936855;29;20040;-74
2023/07/05 06:45:50;;;;;;;4.88;2.50;;;;;;;45.80;18.37;98588.53;4888509;29;20056;-74
2023/07/05 06:48:16;;;;;;;6.50;2.53;;;;;;;45.74;18.51;98583.59;4904128;29;20566;-73
2023/07/05 06:50:41;;;;;;;7.33;2.43;;;;;;;45.65;18.42;98584.59;4919746;29;20071;-73
2023/07/05 06:53:07;;;;;;;7.30;2.80;;;;;;;45.57;18.56;98580.06;4903850;29;20063;-73
2023/07/05 06:55:32;;;;;;;4.57;2.53;;;;;;;45.57;18.81;98574.53;4919398;29;20063;-74
2023/07/05 06:57:58;;;;;;;6.73;2.40;;;;;;;45.51;18.52;98579.50;4919557;29;20051;-74
2023/07/05 07:00:23;;;;;;;8.83;2.63;;;;;;;45.40;18.68;98577.63;4919555;29;20063;-74
2023/07/05 07:02:49;;;;;;;3.60;2.43;;;;;;;45.34;18.95;98574.28;4936463;29;20086;-75
2023/07/05 07:05:15;;;;;;;7.77;2.90;;;;;;;45.25;18.86;98568.19;4919319;29;20431;-73
2023/07/05 07:07:41;;;;;;;8.18;2.88;;;;;;;45.17;19.29;98578.19;4919203;29;20044;-74
2023/07/05 07:10:07;;;;;;;8.33;2.90;;;;;;;45.09;19.28;98568.13;4903619;29;20114;-74
2023/07/05 07:12:33;;;;;;;9.30;2.90;;;;;;;45.00;19.32;98564.75;4904302;29;20106;-74
2023/07/05 07:14:58;;;;;;;5.80;2.92;;;;;;;44.84;19.51;98564.66;4919458;29;20103;-73
2023/07/05 07:17:24;;;;;;;8.77;2.90;;;;;;;44.70;19.63;98567.81;4903566;29;20032;-74
2023/07/05 07:19:50;;;;;;;11.47;3.07;;;;;;;44.51;20.21;98560.94;4919112;29;20040;-74
2023/07/05 07:22:16;;;;;;;7.90;2.83;;;;;;;44.38;19.92;98562.91;4903238;29;20081;-74
2023/07/05 07:24:42;;;;;;;5.97;2.80;;;;;;;44.26;19.93;98566.47;4903113;29;20551;-73
2023/07/05 07:27:08;;;;;;;5.15;2.88;;;;;;;44.11;20.40;98560.84;4919555;29;20079;-74
2023/07/05 07:29:34;;;;;;;9.47;3.67;;;;;;;43.98;21.08;98563.63;4919199;29;20094;-74
2023/07/05 07:32:00;;;;;;;;;;;;;;;43.77;21.19;98571.16;4936052;29;20039;-74
2023/07/05 07:34:26;;;;;;;6.93;3.03;;;;;;;43.71;21.32;98568.63;4935842;29;19910;-73
2023/07/05 07:36:51;;;;;;;5.27;3.20;;;;;;;43.60;21.25;98563.91;4917928;29;20044;-74
2023/07/05 07:39:17;;;;;;;8.03;3.60;;;;;;;43.49;21.62;98563.53;4918600;29;20082;-73
2023/07/05 07:41:42;;;;;;;7.50;3.40;;;;;;;43.46;21.61;98564.22;4918431;29;20403;-73
2023/07/05 07:44:09;;;;;;;11.90;3.57;;;;;;;43.37;21.95;98556.84;4919120;29;20036;-73
2023/07/05 07:46:35;;;;;;;4.97;3.25;;;;;;;43.31;22.46;98560.94;4918208;29;20519;-74
2023/07/05 07:49:01;;;;;;;8.07;3.43;;;;;;;43.22;22.43;98559.44;4902942;29;20031;-74
2023/07/05 07:51:29;;;;;;;9.03;3.40;;;;;;;43.11;22.01;98553.56;4902854;29;20098;-74
2023/07/05 07:53:55;;;;;;;6.68;3.30;;;;;;;43.01;22.54;98557.53;4886930;29;20412;-74
2023/07/05 07:56:23;;;;;;;6.40;3.20;;;;;;;42.95;22.42;98554.19;4902925;29;20546;-74
2023/07/05 07:58:50;;;;;;;7.22;3.30;;;;;;;42.86;22.56;98556.22;4886775;29;20075;-73
2023/07/05 08:01:29;;;;;;;5.93;3.65;;;;;;;42.75;22.59;98557.75;4886963;29;20037;-73
2023/07/05 08:03:56;;;;;;;9.40;3.50;;;;;;;42.64;22.98;98560.09;4903727;29;20047;-73
2023/07/05 08:06:32;;;;;;;11.32;3.97;;;;;;;42.52;23.15;98560.78;4902714;29;20549;-75
2023/07/05 08:08:58;;;;;;;12.02;3.45;;;;;;;42.40;23.20;98552.47;4902797;29;20040;-75
2023/07/05 08:11:23;;;;;;;9.70;3.80;;;;;;;42.30;23.55;98557.25;4886848;29;20427;-74
2023/07/05 08:13:49;;;;;;;8.03;3.43;;;;;;;42.19;23.58;98558.75;4886916;29;20475;-78
2023/07/05 08:16:15;;;;;;;11.37;3.97;;;;;;;42.14;23.70;98572.66;4902627;29;20114;-75
2023/07/05 08:18:41;;;;;;;6.00;3.63;;;;;;;42.08;24.09;98565.72;4918422;29;20475;-75
2023/07/05 08:21:06;;;;;;;9.03;3.63;;;;;;;41.98;24.22;98561.41;4918374;29;20059;-74
2023/07/05 08:23:32;;;;;;;11.93;3.67;;;;;;;41.87;24.18;98550.00;4902081;29;20071;-74
2023/07/05 08:25:57;;;;;;;14.10;4.00;;;;;;;41.79;24.32;98561.03;4902865;29;20032;-75
2023/07/05 08:28:24;;;;;;;10.02;3.42;;;;;;;41.69;24.42;98560.22;4902374;29;20126;-74
2023/07/05 08:30:54;;;;;;;8.68;3.50;;;;;;;41.66;24.66;98558.16;4902619;29;20119;-74
2023/07/05 08:33:21;;;;;;;10.95;3.70;;;;;;;41.67;24.89;98562.50;4918491;29;20400;-76
2023/07/05 08:35:47;;;;;;;7.78;3.90;;;;;;;41.65;25.11;98551.03;4918882;29;20122;-73
2023/07/05 08:38:13;;;;;;;12.18;4.00;;;;;;;41.57;24.85;98552.69;4918102;29;20036;-74
2023/07/05 08:40:38;;;;;;;10.15;4.00;;;;;;;41.52;25.26;98560.28;4902199;29;20044;-73
2023/07/05 08:43:12;;;;;;;10.75;3.92;;;;;;;41.40;25.04;98556.31;4902101;29;20476;-73
2023/07/05 08:45:44;;;;;;;7.07;3.60;;;;;;;41.31;25.53;98552.78;4917565;29;20055;-77
2023/07/05 08:48:10;;;;;;;6.38;3.60;;;;;;;41.25;25.54;98555.97;4919333;29;20384;-73
2023/07/05 08:50:38;;;;;;;6.67;3.67;;;;;;;41.17;25.25;98544.72;4921851;29;20190;-75
2023/07/05 08:53:14;;;;;;;6.85;3.90;;;;;;;41.14;26.04;98548.09;4939008;29;20044;-74
2023/07/05 08:55:43;;;;;;;7.90;4.00;;;;;;;41.11;25.87;98554.22;4921791;29;20036;-74
2023/07/05 08:58:09;;;;;;;8.68;4.50;;;;;;;41.07;25.94;98547.81;4938841;29;20038;-74
2023/07/05 09:00:46;;;;;;;10.05;4.03;;;;;;;40.99;25.96;98548.59;4905882;29;20023;-73
2023/07/05 09:03:11;;;;;;;7.82;4.15;;;;;;;40.86;25.99;98540.25;4906311;29;20035;-74
2023/07/05 09:06:09;;;;;;;7.97;4.28;;;;;;;40.72;25.92;98550.50;4921525;29;20119;-74
2023/07/05 09:08:40;;;;;;;7.75;4.07;;;;;;;40.62;25.84;98553.56;4921411;29;20402;-74
2023/07/05 09:11:13;;;;;;;9.05;4.30;;;;;;;40.44;26.46;98536.34;4938866;29;20062;-73
2023/07/05 09:13:40;;;;;;;6.95;4.45;;;;;;;40.31;26.65;98540.78;4920962;29;20202;-73
2023/07/05 09:16:33;;;;;;;10.77;4.20;;;;;;;40.21;26.68;98532.91;4905777;29;20419;-77
2023/07/05 09:19:14;;;;;;;15.50;4.65;;;;;;;40.02;27.00;98528.50;4938284;29;20118;-73
2023/07/05 09:21:42;;;;;;;10.82;4.10;;;;;;;39.76;27.22;98528.41;4938053;29;20063;-74
2023/07/05 09:24:28;;;;;;;10.02;4.30;;;;;;;39.64;27.36;98525.44;4905469;29;20039;-74
2023/07/05 09:27:01;;;;;;;7.95;4.00;;;;;;;39.55;27.52;98531.69;4936018;29;20067;-74
2023/07/05 09:29:31;;;;;;;6.43;4.00;;;;;;;39.47;27.56;98523.41;4906019;29;20036;-74
2023/07/05 09:31:59;;;;;;;7.63;3.85;;;;;;;39.32;27.36;98521.91;4921485;29;20052;-72
2023/07/05 09:34:24;;;;;;;6.60;3.85;;;;;;;39.16;27.60;98518.75;4905255;29;20483;-74
2023/07/05 09:36:51;;;;;;;7.10;3.47;;;;;;;38.97;27.35;98508.81;4938034;29;20031;-73
2023/07/05 09:39:45;;;;;;;5.53;3.50;;;;;;;38.86;27.65;98519.16;4905346;29;20056;-75
2023/07/05 09:42:14;;;;;;;6.78;3.97;;;;;;;38.71;27.78;98514.88;4904630;29;20051;-74
2023/07/05 09:44:39;;;;;;;6.70;3.75;;;;;;;38.55;28.04;98508.13;4904705;29;20051;-74
2023/07/05 09:47:05;;;;;;;11.80;3.53;;;;;;;38.48;27.91;98510.47;4889462;29;20463;-73
2023/07/05 09:49:30;;;;;;;7.45;3.85;;;;;;;38.39;28.11;98512.31;4937837;29;20127;-73
2023/07/05 09:51:56;;;;;;;9.40;3.90;;;;;;;38.29;28.30;98505.19;4904875;29;20059;-73
2023/07/05 09:54:23;;;;;;;7.60;3.50;;;;;;;38.15;28.26;98508.72;4920514;29;20491;-73
2023/07/05 09:56:58;;;;;;;5.38;3.78;;;;;;;38.04;28.29;98501.84;4920613;29;20055;-73
2023/07/05 09:59:23;;;;;;;6.50;3.65;;;;;;;37.81;28.05;98493.59;4937035;29;20519;-74
2023/07/05 10:01:51;;;;;;;10.48;3.88;;;;;;;37.70;28.48;98492.19;4920602;29;20019;-73
2023/07/05 10:04:17;;;;;;;5.88;3.78;;;;;;;37.64;28.45;98490.63;4889072;29;20047;-74
2023/07/05 10:06:45;;;;;;;4.93;3.90;;;;;;;37.50;28.89;98487.88;4904769;29;20032;-73
2023/07/05 10:09:16;;;;;;;6.57;3.55;;;;;;;37.40;28.80;98496.22;4903969;29;20050;-74
2023/07/05 10:11:44;;;;;;;6.80;4.28;;;;;;;37.27;29.25;98487.75;4905338;29;20032;-73
2023/07/05 10:14:17;;;;;;;6.25;3.85;;;;;;;37.25;29.38;98491.88;4904948;29;20040;-72
2023/07/05 10:17:06;;;;;;;6.95;3.78;;;;;;;37.17;29.29;98487.91;4905216;29;20039;-73
2023/07/05 10:19:44;;;;;;;7.38;3.97;;;;;;;37.08;29.65;98486.97;4920110;29;20032;-73
2023/07/05 10:22:14;;;;;;;4.80;3.50;;;;;;;37.00;29.54;98483.00;4890427;29;20039;-73
2023/07/05 10:24:49;;;;;;;11.45;4.20;;;;;;;36.92;29.79;98478.25;4904377;29;20032;-74
2023/07/05 10:27:27;;;;;;;5.32;3.60;;;;;;;36.84;29.93;98478.94;4920269;29;20090;-74
2023/07/05 10:30:02;;;;;;;7.45;4.00;;;;;;;36.76;30.21;98464.09;4920600;29;20468;-74
2023/07/05 10:32:29;;;;;;;6.60;3.70;;;;;;;36.75;30.03;98470.63;4920483;29;20570;-73
2023/07/05 10:34:55;;;;;;;10.80;3.97;;;;;;;36.70;30.43;98468.75;4888932;29;20403;-74
2023/07/05 10:37:29;;;;;;;6.35;3.88;;;;;;;36.67;30.48;98480.22;4904464;29;20042;-74
2023/07/05 10:39:56;;;;;;;6.13;3.95;;;;;;;36.62;30.09;98464.00;4919617;29;20043;-73
2023/07/05 10:42:21;;;;;;;6.82;4.35;;;;;;;36.54;30.52;98461.97;4903881;29;20500;-74
2023/07/05 10:44:47;;;;;;;6.15;4.10;;;;;;;36.55;30.22;98466.31;4919595;29;20086;-74
2023/07/05 10:47:12;;;;;;;9.52;3.88;;;;;;;36.47;30.67;98459.63;4919996;29;20435;-74
2023/07/05 10:49:38;;;;;;;10.38;4.35;;;;;;;36.44;30.71;98460.22;4919680;29;20235;-74
2023/07/05 10:52:05;;;;;;;7.93;3.92;;;;;;;36.39;30.31;98454.84;4903927;29;20094;-74
2023/07/05 10:54:33;;;;;;;;;;;;;;;36.34;30.06;98457.63;4904025;29;20543;-73
2023/07/05 10:57:33;;;;;;;6.22;4.05;;;;;;;36.19;30.15;98458.63;4936425;29;20443;-73
2023/07/05 11:00:04;;;;;;;7.18;4.30;;;;;;;36.15;30.41;98447.53;4862496;29;20048;-73
2023/07/05 11:02:33;;;;;;;7.47;4.43;;;;;;;36.14;30.62;98447.84;4877638;29;20127;-73
2023/07/05 11:04:58;;;;;;;6.13;3.97;;;;;;;36.08;30.52;98447.09;4877719;29;20045;-73
2023/07/05 11:07:24;;;;;;;6.90;3.78;;;;;;;36.06;30.52;98438.44;4877471;29;20081;-74
2023/07/05 11:09:50;;;;;;;6.57;4.25;;;;;;;35.97;30.11;98432.03;4877446;29;20151;-74
2023/07/05 11:12:20;;;;;;;9.18;4.15;;;;;;;35.91;30.18;98428.56;4860898;29;20037;-73
2023/07/05 11:14:46;;;;;;;9.35;3.75;;;;;;;35.93;30.29;98420.13;4862330;29;20051;-74
2023/07/05 11:17:34;;;;;;;8.07;3.80;;;;;;;35.94;30.32;98424.47;4862177;29;20041;-76
2023/07/05 11:19:59;;;;;;;8.10;3.55;;;;;;;35.90;30.17;98428.84;4861664;29;20512;-75
2023/07/05 11:22:51;;;;;;;4.55;3.88;;;;;;;35.90;29.85;98434.28;4877187;29;20037;-75
2023/07/05 11:25:17;;;;;;;10.05;3.88;;;;;;;35.90;29.88;98423.41;4890348;29;20040;-76
2023/07/05 11:28:02;;;;;;;6.38;3.60;;;;;;;35.91;29.98;98416.91;4861891;29;20124;-74
2023/07/05 11:30:43;;;;;;;7.53;3.70;;;;;;;35.86;29.83;98409.63;4876940;29;20077;-75
2023/07/05 11:33:08;;;;;;;10.25;4.07;;;;;;;35.88;29.44;98409.34;4877313;29;20563;-75
2023/07/05 11:35:54;;;;;;;4.97;3.72;;;;;;;35.83;29.27;98402.84;4907558;29;20054;-75
2023/07/05 11:38:35;;;;;;;9.15;3.90;;;;;;;35.83;29.62;98402.84;4903360;29;20036;-74